sensor_id;sensor_type;location;lat;lon;timestamp;P1;durP1;ratioP1;P2;durP2;ratioP2
71715;SDS011;59568;52.128;5.434;2023-11-22T00:01:05;10.40;;;5.00;;
71715;SDS011;59568;52.128;5.434;2023-11-22T00:03:33;8.48;;;4.15;;
71715;SDS011;59568;52.128;5.434;2023-11-22T00:06:00;8.75;;;3.75;;
71715;SDS011;59568;52.128;5.434;2023-11-22T00:08:28;7.80;;;4.20;;
71715;SDS011;59568;52.128;5.434;2023-11-22T00:10:56;8.27;;;4.47;;
71715;SDS011;59568;52.128;5.434;2023-11-22T00:13:23;7.65;;;3.97;;
71715;SDS011;59568;52.128;5.434;2023-11-22T00:15:50;9.13;;;4.30;;
71715;SDS011;59568;52.128;5.434;2023-11-22T00:18:17;9.13;;;4.28;;
71715;SDS011;59568;52.128;5.434;2023-11-22T00:20:44;8.77;;;4.43;;
71715;SDS011;59568;52.128;5.434;2023-11-22T00:23:13;9.90;;;4.13;;
71715;SDS011;59568;52.128;5.434;2023-11-22T00:25:40;9.80;;;5.25;;
71715;SDS011;59568;52.128;5.434;2023-11-22T00:28:07;9.25;;;3.60;;
71715;SDS011;59568;52.128;5.434;2023-11-22T00:30:34;7.43;;;3.65;;
71715;SDS011;59568;52.128;5.434;2023-11-22T00:33:01;7.90;;;3.55;;
71715;SDS011;59568;52.128;5.434;2023-11-22T00:35:28;7.23;;;3.80;;
71715;SDS011;59568;52.128;5.434;2023-11-22T00:37:56;7.63;;;3.75;;
71715;SDS011;59568;52.128;5.434;2023-11-22T00:40:24;6.90;;;3.38;;
71715;SDS011;59568;52.128;5.434;2023-11-22T00:42:51;8.63;;;4.28;;
71715;SDS011;59568;52.128;5.434;2023-11-22T00:45:18;10.55;;;4.03;;
71715;SDS011;59568;52.128;5.434;2023-11-22T00:47:45;9.43;;;3.93;;
71715;SDS011;59568;52.128;5.434;2023-11-22T00:50:12;8.95;;;4.10;;
71715;SDS011;59568;52.128;5.434;2023-11-22T00:52:40;12.07;;;4.63;;
71715;SDS011;59568;52.128;5.434;2023-11-22T00:55:11;8.23;;;3.65;;
71715;SDS011;59568;52.128;5.434;2023-11-22T00:57:38;9.20;;;3.88;;
71715;SDS011;59568;52.128;5.434;2023-11-22T01:00:05;9.50;;;3.77;;
71715;SDS011;59568;52.128;5.434;2023-11-22T01:02:37;7.60;;;4.22;;
71715;SDS011;59568;52.128;5.434;2023-11-22T01:05:07;8.30;;;4.25;;
71715;SDS011;59568;52.128;5.434;2023-11-22T01:07:38;9.40;;;4.32;;
71715;SDS011;59568;52.128;5.434;2023-11-22T01:10:05;10.02;;;4.10;;
71715;SDS011;59568;52.128;5.434;2023-11-22T01:12:33;7.83;;;4.33;;
71715;SDS011;59568;52.128;5.434;2023-11-22T01:15:00;7.72;;;3.63;;
71715;SDS011;59568;52.128;5.434;2023-11-22T01:17:27;9.30;;;3.75;;
71715;SDS011;59568;52.128;5.434;2023-11-22T01:19:54;7.50;;;3.85;;
71715;SDS011;59568;52.128;5.434;2023-11-22T01:22:21;9.55;;;4.40;;
71715;SDS011;59568;52.128;5.434;2023-11-22T01:24:48;9.07;;;3.97;;
71715;SDS011;59568;52.128;5.434;2023-11-22T01:27:15;9.48;;;4.00;;
71715;SDS011;59568;52.128;5.434;2023-11-22T01:29:42;9.50;;;4.05;;
71715;SDS011;59568;52.128;5.434;2023-11-22T01:32:09;7.63;;;4.03;;
71715;SDS011;59568;52.128;5.434;2023-11-22T01:34:35;9.00;;;3.65;;
71715;SDS011;59568;52.128;5.434;2023-11-22T01:37:02;7.67;;;3.47;;
71715;SDS011;59568;52.128;5.434;2023-11-22T01:39:30;5.72;;;3.13;;
71715;SDS011;59568;52.128;5.434;2023-11-22T01:41:57;10.88;;;4.45;;
71715;SDS011;59568;52.128;5.434;2023-11-22T01:44:24;8.25;;;4.07;;
71715;SDS011;59568;52.128;5.434;2023-11-22T01:46:53;9.23;;;4.65;;
71715;SDS011;59568;52.128;5.434;2023-11-22T01:49:20;9.80;;;3.83;;
71715;SDS011;59568;52.128;5.434;2023-11-22T01:51:50;9.95;;;4.20;;
71715;SDS011;59568;52.128;5.434;2023-11-22T01:54:17;8.27;;;4.53;;
71715;SDS011;59568;52.128;5.434;2023-11-22T01:56:45;10.40;;;3.97;;
71715;SDS011;59568;52.128;5.434;2023-11-22T01:59:13;9.68;;;3.90;;
71715;SDS011;59568;52.128;5.434;2023-11-22T02:01:40;10.77;;;3.90;;
71715;SDS011;59568;52.128;5.434;2023-11-22T02:04:11;9.50;;;3.75;;
71715;SDS011;59568;52.128;5.434;2023-11-22T02:06:39;7.45;;;3.75;;
71715;SDS011;59568;52.128;5.434;2023-11-22T02:09:06;10.63;;;3.92;;
71715;SDS011;59568;52.128;5.434;2023-11-22T02:11:33;7.63;;;3.63;;
71715;SDS011;59568;52.128;5.434;2023-11-22T02:14:00;8.90;;;4.27;;
71715;SDS011;59568;52.128;5.434;2023-11-22T02:16:27;7.30;;;3.25;;
71715;SDS011;59568;52.128;5.434;2023-11-22T02:18:54;6.43;;;3.30;;
71715;SDS011;59568;52.128;5.434;2023-11-22T02:21:21;10.68;;;4.50;;
71715;SDS011;59568;52.128;5.434;2023-11-22T02:23:48;8.27;;;3.53;;
71715;SDS011;59568;52.128;5.434;2023-11-22T02:26:15;10.77;;;4.20;;
71715;SDS011;59568;52.128;5.434;2023-11-22T02:28:45;7.05;;;3.72;;
71715;SDS011;59568;52.128;5.434;2023-11-22T02:31:12;8.00;;;3.72;;
71715;SDS011;59568;52.128;5.434;2023-11-22T02:33:39;9.60;;;3.78;;
71715;SDS011;59568;52.128;5.434;2023-11-22T02:36:06;5.93;;;3.35;;
71715;SDS011;59568;52.128;5.434;2023-11-22T02:38:34;5.87;;;3.00;;
71715;SDS011;59568;52.128;5.434;2023-11-22T02:41:01;5.32;;;2.72;;
71715;SDS011;59568;52.128;5.434;2023-11-22T02:43:29;7.00;;;2.63;;
71715;SDS011;59568;52.128;5.434;2023-11-22T02:45:55;5.18;;;2.50;;
71715;SDS011;59568;52.128;5.434;2023-11-22T02:48:22;8.20;;;3.30;;
71715;SDS011;59568;52.128;5.434;2023-11-22T02:50:50;6.67;;;2.43;;
71715;SDS011;59568;52.128;5.434;2023-11-22T02:53:17;8.23;;;3.83;;
71715;SDS011;59568;52.128;5.434;2023-11-22T02:55:43;5.35;;;2.72;;
71715;SDS011;59568;52.128;5.434;2023-11-22T02:58:11;6.50;;;3.35;;
71715;SDS011;59568;52.128;5.434;2023-11-22T03:00:42;8.68;;;3.58;;
71715;SDS011;59568;52.128;5.434;2023-11-22T03:03:09;6.30;;;3.03;;
71715;SDS011;59568;52.128;5.434;2023-11-22T03:05:37;6.90;;;3.45;;
71715;SDS011;59568;52.128;5.434;2023-11-22T03:08:04;6.60;;;3.65;;
71715;SDS011;59568;52.128;5.434;2023-11-22T03:10:33;7.05;;;2.97;;
71715;SDS011;59568;52.128;5.434;2023-11-22T03:13:02;6.38;;;3.42;;
71715;SDS011;59568;52.128;5.434;2023-11-22T03:15:29;9.20;;;3.73;;
71715;SDS011;59568;52.128;5.434;2023-11-22T03:17:55;7.72;;;3.22;;
71715;SDS011;59568;52.128;5.434;2023-11-22T03:20:22;6.20;;;3.47;;
71715;SDS011;59568;52.128;5.434;2023-11-22T03:22:49;7.30;;;3.70;;
71715;SDS011;59568;52.128;5.434;2023-11-22T03:25:17;5.72;;;2.97;;
71715;SDS011;59568;52.128;5.434;2023-11-22T03:27:44;8.83;;;3.40;;
71715;SDS011;59568;52.128;5.434;2023-11-22T03:30:13;6.05;;;2.95;;
71715;SDS011;59568;52.128;5.434;2023-11-22T03:32:41;7.65;;;3.50;;
71715;SDS011;59568;52.128;5.434;2023-11-22T03:35:10;6.45;;;2.92;;
71715;SDS011;59568;52.128;5.434;2023-11-22T03:37:38;5.47;;;2.97;;
71715;SDS011;59568;52.128;5.434;2023-11-22T03:40:06;8.80;;;4.33;;
71715;SDS011;59568;52.128;5.434;2023-11-22T03:42:35;8.07;;;3.60;;
71715;SDS011;59568;52.128;5.434;2023-11-22T03:45:03;8.55;;;3.40;;
71715;SDS011;59568;52.128;5.434;2023-11-22T03:47:31;8.23;;;3.70;;
71715;SDS011;59568;52.128;5.434;2023-11-22T03:50:00;8.63;;;3.10;;
71715;SDS011;59568;52.128;5.434;2023-11-22T03:52:27;5.50;;;3.20;;
71715;SDS011;59568;52.128;5.434;2023-11-22T03:54:54;7.63;;;3.30;;
71715;SDS011;59568;52.128;5.434;2023-11-22T03:57:21;7.13;;;3.65;;
71715;SDS011;59568;52.128;5.434;2023-11-22T03:59:47;6.75;;;3.03;;
71715;SDS011;59568;52.128;5.434;2023-11-22T04:02:15;6.53;;;3.60;;
71715;SDS011;59568;52.128;5.434;2023-11-22T04:04:42;6.97;;;3.70;;
71715;SDS011;59568;52.128;5.434;2023-11-22T04:07:09;12.18;;;3.83;;
71715;SDS011;59568;52.128;5.434;2023-11-22T04:09:36;7.47;;;3.80;;
71715;SDS011;59568;52.128;5.434;2023-11-22T04:12:03;10.02;;;4.25;;
71715;SDS011;59568;52.128;5.434;2023-11-22T04:14:30;6.50;;;3.53;;
71715;SDS011;59568;52.128;5.434;2023-11-22T04:16:58;8.37;;;3.87;;
71715;SDS011;59568;52.128;5.434;2023-11-22T04:19:25;7.38;;;3.90;;
71715;SDS011;59568;52.128;5.434;2023-11-22T04:21:52;9.02;;;4.30;;
71715;SDS011;59568;52.128;5.434;2023-11-22T04:24:20;7.43;;;4.20;;
71715;SDS011;59568;52.128;5.434;2023-11-22T04:26:48;7.43;;;4.28;;
71715;SDS011;59568;52.128;5.434;2023-11-22T04:29:15;8.77;;;4.03;;
71715;SDS011;59568;52.128;5.434;2023-11-22T04:31:43;8.50;;;3.72;;
71715;SDS011;59568;52.128;5.434;2023-11-22T04:34:10;9.02;;;3.60;;
71715;SDS011;59568;52.128;5.434;2023-11-22T04:36:37;10.25;;;3.95;;
71715;SDS011;59568;52.128;5.434;2023-11-22T04:39:05;6.03;;;3.47;;
71715;SDS011;59568;52.128;5.434;2023-11-22T04:41:34;8.33;;;2.80;;
71715;SDS011;59568;52.128;5.434;2023-11-22T04:44:01;7.32;;;2.92;;
71715;SDS011;59568;52.128;5.434;2023-11-22T04:46:28;6.53;;;3.28;;
71715;SDS011;59568;52.128;5.434;2023-11-22T04:48:55;7.38;;;3.38;;
71715;SDS011;59568;52.128;5.434;2023-11-22T04:51:22;7.07;;;3.08;;
71715;SDS011;59568;52.128;5.434;2023-11-22T04:53:50;5.13;;;2.30;;
71715;SDS011;59568;52.128;5.434;2023-11-22T04:56:18;6.25;;;3.28;;
71715;SDS011;59568;52.128;5.434;2023-11-22T04:58:45;7.47;;;3.03;;
71715;SDS011;59568;52.128;5.434;2023-11-22T05:01:11;7.72;;;3.05;;
71715;SDS011;59568;52.128;5.434;2023-11-22T05:03:39;6.75;;;3.38;;
71715;SDS011;59568;52.128;5.434;2023-11-22T05:06:06;5.37;;;2.67;;
71715;SDS011;59568;52.128;5.434;2023-11-22T05:08:33;6.20;;;2.95;;
71715;SDS011;59568;52.128;5.434;2023-11-22T05:11:01;5.90;;;2.97;;
71715;SDS011;59568;52.128;5.434;2023-11-22T05:13:29;4.25;;;2.70;;
71715;SDS011;59568;52.128;5.434;2023-11-22T05:15:56;4.40;;;2.38;;
71715;SDS011;59568;52.128;5.434;2023-11-22T05:18:23;6.33;;;3.20;;
71715;SDS011;59568;52.128;5.434;2023-11-22T05:20:50;5.10;;;2.40;;
71715;SDS011;59568;52.128;5.434;2023-11-22T05:23:17;5.28;;;2.45;;
71715;SDS011;59568;52.128;5.434;2023-11-22T05:25:44;6.03;;;2.50;;
71715;SDS011;59568;52.128;5.434;2023-11-22T05:28:11;10.30;;;3.40;;
71715;SDS011;59568;52.128;5.434;2023-11-22T05:30:38;7.20;;;3.20;;
71715;SDS011;59568;52.128;5.434;2023-11-22T05:33:05;5.30;;;2.55;;
71715;SDS011;59568;52.128;5.434;2023-11-22T05:35:32;6.00;;;2.15;;
71715;SDS011;59568;52.128;5.434;2023-11-22T05:38:00;7.45;;;3.20;;
71715;SDS011;59568;52.128;5.434;2023-11-22T05:40:26;4.53;;;2.53;;
71715;SDS011;59568;52.128;5.434;2023-11-22T05:42:53;5.20;;;2.40;;
71715;SDS011;59568;52.128;5.434;2023-11-22T05:45:20;3.88;;;2.88;;
71715;SDS011;59568;52.128;5.434;2023-11-22T05:47:47;4.80;;;2.42;;
71715;SDS011;59568;52.128;5.434;2023-11-22T05:50:14;7.97;;;2.58;;
71715;SDS011;59568;52.128;5.434;2023-11-22T05:52:41;5.30;;;3.13;;
71715;SDS011;59568;52.128;5.434;2023-11-22T05:55:08;7.13;;;3.03;;
71715;SDS011;59568;52.128;5.434;2023-11-22T05:57:35;7.55;;;2.97;;
71715;SDS011;59568;52.128;5.434;2023-11-22T06:00:02;4.38;;;2.00;;
71715;SDS011;59568;52.128;5.434;2023-11-22T06:02:29;6.13;;;2.67;;
71715;SDS011;59568;52.128;5.434;2023-11-22T06:04:56;5.93;;;3.33;;
71715;SDS011;59568;52.128;5.434;2023-11-22T06:07:23;5.73;;;2.67;;
71715;SDS011;59568;52.128;5.434;2023-11-22T06:09:50;5.85;;;2.58;;
71715;SDS011;59568;52.128;5.434;2023-11-22T06:12:17;5.47;;;2.55;;
71715;SDS011;59568;52.128;5.434;2023-11-22T06:14:46;6.40;;;3.10;;
71715;SDS011;59568;52.128;5.434;2023-11-22T06:17:13;5.72;;;2.38;;
71715;SDS011;59568;52.128;5.434;2023-11-22T06:19:40;4.73;;;2.83;;
71715;SDS011;59568;52.128;5.434;2023-11-22T06:22:10;5.22;;;2.72;;
71715;SDS011;59568;52.128;5.434;2023-11-22T06:24:37;5.43;;;2.65;;
71715;SDS011;59568;52.128;5.434;2023-11-22T06:27:04;5.78;;;2.40;;
71715;SDS011;59568;52.128;5.434;2023-11-22T06:29:32;4.85;;;2.47;;
71715;SDS011;59568;52.128;5.434;2023-11-22T06:31:58;5.07;;;2.53;;
71715;SDS011;59568;52.128;5.434;2023-11-22T06:34:25;6.70;;;2.60;;
71715;SDS011;59568;52.128;5.434;2023-11-22T06:36:52;4.60;;;2.65;;
71715;SDS011;59568;52.128;5.434;2023-11-22T06:39:19;5.60;;;2.78;;
71715;SDS011;59568;52.128;5.434;2023-11-22T06:41:49;5.40;;;2.55;;
71715;SDS011;59568;52.128;5.434;2023-11-22T06:44:15;5.63;;;2.70;;
71715;SDS011;59568;52.128;5.434;2023-11-22T06:46:43;4.80;;;2.35;;
71715;SDS011;59568;52.128;5.434;2023-11-22T06:49:09;5.20;;;2.60;;
71715;SDS011;59568;52.128;5.434;2023-11-22T06:51:36;6.10;;;2.63;;
71715;SDS011;59568;52.128;5.434;2023-11-22T06:54:04;6.28;;;2.75;;
71715;SDS011;59568;52.128;5.434;2023-11-22T06:56:31;5.07;;;2.27;;
71715;SDS011;59568;52.128;5.434;2023-11-22T06:58:58;5.57;;;2.72;;
71715;SDS011;59568;52.128;5.434;2023-11-22T07:01:25;5.43;;;2.83;;
71715;SDS011;59568;52.128;5.434;2023-11-22T07:03:52;7.70;;;3.10;;
71715;SDS011;59568;52.128;5.434;2023-11-22T07:06:22;6.72;;;3.42;;
71715;SDS011;59568;52.128;5.434;2023-11-22T07:08:49;6.87;;;3.17;;
71715;SDS011;59568;52.128;5.434;2023-11-22T07:11:23;8.63;;;3.08;;
71715;SDS011;59568;52.128;5.434;2023-11-22T07:13:50;7.50;;;3.47;;
71715;SDS011;59568;52.128;5.434;2023-11-22T07:16:18;9.27;;;3.55;;
71715;SDS011;59568;52.128;5.434;2023-11-22T07:18:47;6.80;;;3.10;;
71715;SDS011;59568;52.128;5.434;2023-11-22T07:21:14;8.70;;;3.67;;
71715;SDS011;59568;52.128;5.434;2023-11-22T07:23:41;6.30;;;2.88;;
71715;SDS011;59568;52.128;5.434;2023-11-22T07:26:08;6.72;;;3.25;;
71715;SDS011;59568;52.128;5.434;2023-11-22T07:28:35;8.20;;;3.65;;
71715;SDS011;59568;52.128;5.434;2023-11-22T07:31:06;8.90;;;3.08;;
71715;SDS011;59568;52.128;5.434;2023-11-22T07:33:34;5.53;;;2.33;;
71715;SDS011;59568;52.128;5.434;2023-11-22T07:36:02;6.68;;;3.10;;
71715;SDS011;59568;52.128;5.434;2023-11-22T07:38:30;6.38;;;3.30;;
71715;SDS011;59568;52.128;5.434;2023-11-22T07:40:59;5.85;;;3.00;;
71715;SDS011;59568;52.128;5.434;2023-11-22T07:43:26;8.68;;;4.43;;
71715;SDS011;59568;52.128;5.434;2023-11-22T07:45:53;7.80;;;3.47;;
71715;SDS011;59568;52.128;5.434;2023-11-22T07:48:20;7.05;;;3.15;;
71715;SDS011;59568;52.128;5.434;2023-11-22T07:50:47;7.88;;;3.85;;
71715;SDS011;59568;52.128;5.434;2023-11-22T07:53:16;7.53;;;3.33;;
71715;SDS011;59568;52.128;5.434;2023-11-22T07:55:44;8.60;;;3.63;;
71715;SDS011;59568;52.128;5.434;2023-11-22T07:58:11;7.80;;;3.37;;
71715;SDS011;59568;52.128;5.434;2023-11-22T08:00:38;9.40;;;3.40;;
71715;SDS011;59568;52.128;5.434;2023-11-22T08:03:08;7.38;;;2.92;;
71715;SDS011;59568;52.128;5.434;2023-11-22T08:05:36;8.07;;;3.50;;
71715;SDS011;59568;52.128;5.434;2023-11-22T08:08:03;6.93;;;3.78;;
71715;SDS011;59568;52.128;5.434;2023-11-22T08:10:35;6.57;;;3.73;;
71715;SDS011;59568;52.128;5.434;2023-11-22T08:13:02;9.10;;;3.80;;
71715;SDS011;59568;52.128;5.434;2023-11-22T08:15:29;7.07;;;3.95;;
71715;SDS011;59568;52.128;5.434;2023-11-22T08:17:59;8.35;;;3.60;;
71715;SDS011;59568;52.128;5.434;2023-11-22T08:20:29;8.60;;;3.90;;
71715;SDS011;59568;52.128;5.434;2023-11-22T08:22:57;9.03;;;3.83;;
71715;SDS011;59568;52.128;5.434;2023-11-22T08:25:24;6.45;;;3.58;;
71715;SDS011;59568;52.128;5.434;2023-11-22T08:27:51;8.60;;;4.13;;
71715;SDS011;59568;52.128;5.434;2023-11-22T08:30:20;10.50;;;3.75;;
71715;SDS011;59568;52.128;5.434;2023-11-22T08:32:47;8.52;;;4.13;;
71715;SDS011;59568;52.128;5.434;2023-11-22T08:35:20;8.50;;;3.97;;
71715;SDS011;59568;52.128;5.434;2023-11-22T08:37:48;10.48;;;4.18;;
71715;SDS011;59568;52.128;5.434;2023-11-22T08:40:17;9.20;;;3.75;;
71715;SDS011;59568;52.128;5.434;2023-11-22T08:42:47;9.43;;;4.32;;
71715;SDS011;59568;52.128;5.434;2023-11-22T08:45:15;9.13;;;4.05;;
71715;SDS011;59568;52.128;5.434;2023-11-22T08:47:42;7.43;;;3.90;;
71715;SDS011;59568;52.128;5.434;2023-11-22T08:50:09;9.95;;;4.40;;
71715;SDS011;59568;52.128;5.434;2023-11-22T08:52:42;8.68;;;4.40;;
71715;SDS011;59568;52.128;5.434;2023-11-22T08:55:12;13.25;;;4.55;;
71715;SDS011;59568;52.128;5.434;2023-11-22T08:57:41;8.43;;;4.18;;
71715;SDS011;59568;52.128;5.434;2023-11-22T09:00:08;7.33;;;3.77;;
71715;SDS011;59568;52.128;5.434;2023-11-22T09:02:37;8.20;;;4.43;;
71715;SDS011;59568;52.128;5.434;2023-11-22T09:05:06;7.65;;;3.80;;
71715;SDS011;59568;52.128;5.434;2023-11-22T09:07:39;14.48;;;5.07;;
71715;SDS011;59568;52.128;5.434;2023-11-22T09:10:07;8.77;;;4.85;;
71715;SDS011;59568;52.128;5.434;2023-11-22T09:12:37;8.73;;;5.07;;
71715;SDS011;59568;52.128;5.434;2023-11-22T09:15:08;11.60;;;5.13;;
71715;SDS011;59568;52.128;5.434;2023-11-22T09:17:40;11.77;;;5.43;;
71715;SDS011;59568;52.128;5.434;2023-11-22T09:20:14;9.13;;;4.72;;
71715;SDS011;59568;52.128;5.434;2023-11-22T09:22:44;11.30;;;5.25;;
71715;SDS011;59568;52.128;5.434;2023-11-22T09:25:16;11.37;;;5.27;;
71715;SDS011;59568;52.128;5.434;2023-11-22T09:27:48;14.60;;;5.80;;
71715;SDS011;59568;52.128;5.434;2023-11-22T09:30:21;13.02;;;6.38;;
71715;SDS011;59568;52.128;5.434;2023-11-22T09:33:00;13.07;;;5.07;;
71715;SDS011;59568;52.128;5.434;2023-11-22T09:35:31;11.07;;;5.72;;
71715;SDS011;59568;52.128;5.434;2023-11-22T09:38:03;9.57;;;5.03;;
71715;SDS011;59568;52.128;5.434;2023-11-22T09:40:31;10.00;;;4.65;;
71715;SDS011;59568;52.128;5.434;2023-11-22T09:43:02;14.10;;;6.22;;
71715;SDS011;59568;52.128;5.434;2023-11-22T09:45:30;12.77;;;6.03;;
71715;SDS011;59568;52.128;5.434;2023-11-22T09:47:58;11.30;;;5.93;;
71715;SDS011;59568;52.128;5.434;2023-11-22T09:53:19;13.35;;;6.10;;
71715;SDS011;59568;52.128;5.434;2023-11-22T09:55:57;15.10;;;5.90;;
71715;SDS011;59568;52.128;5.434;2023-11-22T09:58:25;15.38;;;6.82;;
71715;SDS011;59568;52.128;5.434;2023-11-22T10:00:56;12.85;;;6.43;;
71715;SDS011;59568;52.128;5.434;2023-11-22T10:03:23;12.40;;;6.00;;
71715;SDS011;59568;52.128;5.434;2023-11-22T10:05:52;12.52;;;5.45;;
71715;SDS011;59568;52.128;5.434;2023-11-22T10:08:20;13.80;;;6.15;;
71715;SDS011;59568;52.128;5.434;2023-11-22T10:10:49;16.38;;;7.07;;
71715;SDS011;59568;52.128;5.434;2023-11-22T10:13:20;12.55;;;6.03;;
71715;SDS011;59568;52.128;5.434;2023-11-22T10:15:52;11.60;;;5.67;;
71715;SDS011;59568;52.128;5.434;2023-11-22T10:18:20;14.13;;;5.90;;
71715;SDS011;59568;52.128;5.434;2023-11-22T10:20:48;10.75;;;5.80;;
71715;SDS011;59568;52.128;5.434;2023-11-22T10:23:17;10.48;;;5.22;;
71715;SDS011;59568;52.128;5.434;2023-11-22T10:25:46;10.65;;;5.63;;
71715;SDS011;59568;52.128;5.434;2023-11-22T10:28:20;12.77;;;6.07;;
71715;SDS011;59568;52.128;5.434;2023-11-22T10:30:48;12.63;;;5.47;;
71715;SDS011;59568;52.128;5.434;2023-11-22T10:33:18;11.48;;;5.57;;
71715;SDS011;59568;52.128;5.434;2023-11-22T10:35:50;12.88;;;6.18;;
71715;SDS011;59568;52.128;5.434;2023-11-22T10:38:18;12.88;;;5.95;;
71715;SDS011;59568;52.128;5.434;2023-11-22T10:40:46;12.40;;;6.17;;
71715;SDS011;59568;52.128;5.434;2023-11-22T10:43:15;18.38;;;6.28;;
71715;SDS011;59568;52.128;5.434;2023-11-22T10:45:43;12.80;;;5.90;;
71715;SDS011;59568;52.128;5.434;2023-11-22T10:48:18;15.20;;;6.10;;
71715;SDS011;59568;52.128;5.434;2023-11-22T10:50:46;10.02;;;6.00;;
71715;SDS011;59568;52.128;5.434;2023-11-22T10:53:20;12.67;;;6.03;;
71715;SDS011;59568;52.128;5.434;2023-11-22T10:55:53;14.05;;;7.25;;
71715;SDS011;59568;52.128;5.434;2023-11-22T10:58:26;12.45;;;6.13;;
71715;SDS011;59568;52.128;5.434;2023-11-22T11:00:54;13.07;;;6.20;;
71715;SDS011;59568;52.128;5.434;2023-11-22T11:03:23;11.55;;;6.40;;
71715;SDS011;59568;52.128;5.434;2023-11-22T11:05:58;14.90;;;5.93;;
71715;SDS011;59568;52.128;5.434;2023-11-22T11:08:26;11.40;;;5.82;;
71715;SDS011;59568;52.128;5.434;2023-11-22T11:10:55;15.23;;;6.40;;
71715;SDS011;59568;52.128;5.434;2023-11-22T11:13:25;13.77;;;6.78;;
71715;SDS011;59568;52.128;5.434;2023-11-22T11:15:53;11.75;;;6.38;;
71715;SDS011;59568;52.128;5.434;2023-11-22T11:18:22;15.40;;;7.17;;
71715;SDS011;59568;52.128;5.434;2023-11-22T11:20:51;14.77;;;6.28;;
71715;SDS011;59568;52.128;5.434;2023-11-22T11:23:20;12.25;;;6.50;;
71715;SDS011;59568;52.128;5.434;2023-11-22T11:25:50;13.07;;;5.85;;
71715;SDS011;59568;52.128;5.434;2023-11-22T11:28:21;12.52;;;6.05;;
71715;SDS011;59568;52.128;5.434;2023-11-22T11:30:54;14.37;;;6.13;;
71715;SDS011;59568;52.128;5.434;2023-11-22T11:33:27;13.48;;;6.50;;
71715;SDS011;59568;52.128;5.434;2023-11-22T11:36:03;12.95;;;6.75;;
71715;SDS011;59568;52.128;5.434;2023-11-22T11:38:31;11.15;;;6.25;;
71715;SDS011;59568;52.128;5.434;2023-11-22T11:41:10;11.45;;;6.10;;
71715;SDS011;59568;52.128;5.434;2023-11-22T11:43:43;12.10;;;5.97;;
71715;SDS011;59568;52.128;5.434;2023-11-22T11:46:17;12.77;;;6.82;;
71715;SDS011;59568;52.128;5.434;2023-11-22T11:48:45;12.48;;;6.15;;
71715;SDS011;59568;52.128;5.434;2023-11-22T11:51:15;15.73;;;6.93;;
71715;SDS011;59568;52.128;5.434;2023-11-22T11:53:44;11.57;;;6.38;;
71715;SDS011;59568;52.128;5.434;2023-11-22T11:56:12;12.80;;;6.20;;
71715;SDS011;59568;52.128;5.434;2023-11-22T11:58:41;10.65;;;6.50;;
71715;SDS011;59568;52.128;5.434;2023-11-22T12:01:13;13.82;;;6.13;;
71715;SDS011;59568;52.128;5.434;2023-11-22T12:03:43;13.10;;;6.38;;
71715;SDS011;59568;52.128;5.434;2023-11-22T12:06:14;14.50;;;6.43;;
71715;SDS011;59568;52.128;5.434;2023-11-22T12:08:42;14.87;;;5.63;;
71715;SDS011;59568;52.128;5.434;2023-11-22T12:11:09;13.80;;;6.55;;
71715;SDS011;59568;52.128;5.434;2023-11-22T12:13:37;11.45;;;6.07;;
71715;SDS011;59568;52.128;5.434;2023-11-22T12:16:05;15.13;;;6.60;;
71715;SDS011;59568;52.128;5.434;2023-11-22T12:18:41;14.48;;;6.30;;
71715;SDS011;59568;52.128;5.434;2023-11-22T12:21:10;12.07;;;5.47;;
71715;SDS011;59568;52.128;5.434;2023-11-22T12:23:41;14.27;;;6.03;;
71715;SDS011;59568;52.128;5.434;2023-11-22T12:26:09;14.38;;;6.35;;
71715;SDS011;59568;52.128;5.434;2023-11-22T12:28:39;13.75;;;6.85;;
71715;SDS011;59568;52.128;5.434;2023-11-22T12:31:12;14.23;;;6.72;;
71715;SDS011;59568;52.128;5.434;2023-11-22T12:33:40;11.67;;;5.73;;
71715;SDS011;59568;52.128;5.434;2023-11-22T12:36:08;13.75;;;7.05;;
71715;SDS011;59568;52.128;5.434;2023-11-22T12:38:36;13.85;;;7.30;;
71715;SDS011;59568;52.128;5.434;2023-11-22T12:41:05;11.10;;;6.18;;
71715;SDS011;59568;52.128;5.434;2023-11-22T12:43:33;12.25;;;6.05;;
71715;SDS011;59568;52.128;5.434;2023-11-22T12:46:12;14.73;;;7.03;;
71715;SDS011;59568;52.128;5.434;2023-11-22T12:48:42;16.83;;;6.72;;
71715;SDS011;59568;52.128;5.434;2023-11-22T12:51:17;12.57;;;6.72;;
71715;SDS011;59568;52.128;5.434;2023-11-22T12:53:49;15.82;;;7.72;;
71715;SDS011;59568;52.128;5.434;2023-11-22T12:56:17;16.45;;;7.32;;
71715;SDS011;59568;52.128;5.434;2023-11-22T12:58:44;17.80;;;7.47;;
71715;SDS011;59568;52.128;5.434;2023-11-22T13:01:11;17.02;;;7.18;;
71715;SDS011;59568;52.128;5.434;2023-11-22T13:03:38;15.43;;;7.28;;
71715;SDS011;59568;52.128;5.434;2023-11-22T13:06:05;20.83;;;8.20;;
71715;SDS011;59568;52.128;5.434;2023-11-22T13:08:33;14.65;;;7.05;;
71715;SDS011;59568;52.128;5.434;2023-11-22T13:11:01;19.07;;;7.63;;
71715;SDS011;59568;52.128;5.434;2023-11-22T13:13:28;19.05;;;8.85;;
71715;SDS011;59568;52.128;5.434;2023-11-22T13:15:57;19.15;;;8.20;;
71715;SDS011;59568;52.128;5.434;2023-11-22T13:18:24;19.20;;;7.80;;
71715;SDS011;59568;52.128;5.434;2023-11-22T13:20:53;16.83;;;8.20;;
71715;SDS011;59568;52.128;5.434;2023-11-22T13:23:20;16.70;;;8.50;;
71715;SDS011;59568;52.128;5.434;2023-11-22T13:25:47;14.48;;;7.22;;
71715;SDS011;59568;52.128;5.434;2023-11-22T13:28:15;17.20;;;8.07;;
71715;SDS011;59568;52.128;5.434;2023-11-22T13:30:43;17.80;;;8.30;;
71715;SDS011;59568;52.128;5.434;2023-11-22T13:33:10;14.85;;;8.23;;
71715;SDS011;59568;52.128;5.434;2023-11-22T13:35:38;14.70;;;7.07;;
71715;SDS011;59568;52.128;5.434;2023-11-22T13:38:05;16.42;;;7.13;;
71715;SDS011;59568;52.128;5.434;2023-11-22T13:40:38;15.85;;;7.20;;
71715;SDS011;59568;52.128;5.434;2023-11-22T13:43:12;15.55;;;7.05;;
71715;SDS011;59568;52.128;5.434;2023-11-22T13:45:40;15.27;;;7.43;;
71715;SDS011;59568;52.128;5.434;2023-11-22T13:48:08;15.70;;;6.73;;
71715;SDS011;59568;52.128;5.434;2023-11-22T13:50:36;16.17;;;7.45;;
71715;SDS011;59568;52.128;5.434;2023-11-22T13:53:04;14.05;;;7.22;;
71715;SDS011;59568;52.128;5.434;2023-11-22T13:55:31;15.23;;;6.28;;
71715;SDS011;59568;52.128;5.434;2023-11-22T13:57:59;14.00;;;7.25;;
71715;SDS011;59568;52.128;5.434;2023-11-22T14:00:27;14.43;;;6.20;;
71715;SDS011;59568;52.128;5.434;2023-11-22T14:03:00;16.83;;;7.25;;
71715;SDS011;59568;52.128;5.434;2023-11-22T14:05:34;15.95;;;6.85;;
71715;SDS011;59568;52.128;5.434;2023-11-22T14:08:04;14.30;;;6.40;;
71715;SDS011;59568;52.128;5.434;2023-11-22T14:10:33;14.60;;;6.90;;
71715;SDS011;59568;52.128;5.434;2023-11-22T14:13:00;14.43;;;6.20;;
71715;SDS011;59568;52.128;5.434;2023-11-22T14:15:29;16.88;;;7.50;;
71715;SDS011;59568;52.128;5.434;2023-11-22T14:17:57;15.25;;;7.47;;
71715;SDS011;59568;52.128;5.434;2023-11-22T14:20:24;14.70;;;6.93;;
71715;SDS011;59568;52.128;5.434;2023-11-22T14:22:52;13.73;;;7.13;;
71715;SDS011;59568;52.128;5.434;2023-11-22T14:25:19;15.00;;;7.47;;
71715;SDS011;59568;52.128;5.434;2023-11-22T14:27:48;17.20;;;8.30;;
71715;SDS011;59568;52.128;5.434;2023-11-22T14:30:21;15.07;;;7.65;;
71715;SDS011;59568;52.128;5.434;2023-11-22T14:32:48;13.27;;;7.22;;
71715;SDS011;59568;52.128;5.434;2023-11-22T14:35:18;16.45;;;8.05;;
71715;SDS011;59568;52.128;5.434;2023-11-22T14:37:45;14.73;;;7.63;;
71715;SDS011;59568;52.128;5.434;2023-11-22T14:40:12;16.30;;;7.68;;
71715;SDS011;59568;52.128;5.434;2023-11-22T14:42:43;16.38;;;7.63;;
71715;SDS011;59568;52.128;5.434;2023-11-22T14:45:19;14.27;;;7.30;;
71715;SDS011;59568;52.128;5.434;2023-11-22T14:47:47;17.45;;;7.80;;
71715;SDS011;59568;52.128;5.434;2023-11-22T14:50:14;16.50;;;7.70;;
71715;SDS011;59568;52.128;5.434;2023-11-22T14:52:42;16.10;;;8.02;;